Terminal Aerodrome Forecast
Issued by NWS

Home | Current Version | Previous Version | Text Only | Print | Product List | Glossary On
Versions: 1 2 3 4 5 6 7 8 9 10 11 12
000
FTUS42 TJSJ 221100
TAFJPS
TAF
TJPS 221125Z 2212/2312 05003KT P6SM FEW025 SCT050 SCT100
     FM221300 12014KT P6SM SCT030 SCT050
      TEMPO 2217/2221 VRB12G20KT 4SM -TSRA SCT025CB BKN050
     FM222300 09006KT P6SM -RA SCT025 BKN060 BKN100=

USA.gov is the U.S. government's official web portal to all federal, state and local government web resources and services.